createdAt,value
2019-02-25T00:00:10.087Z,49.02
2019-02-25T00:02:58.779Z,49.70
2019-02-25T00:05:47.288Z,49.48
2019-02-25T00:08:35.359Z,49.95
2019-02-25T00:11:23.795Z,49.66
2019-02-25T00:14:12.171Z,49.85
2019-02-25T00:17:00.693Z,50.00
2019-02-25T00:19:49.422Z,50.69
2019-02-25T00:22:38.439Z,50.26
2019-02-25T00:25:27.117Z,50.22
2019-02-25T00:28:15.055Z,50.62
2019-02-25T00:31:03.684Z,50.92
2019-02-25T00:33:52.205Z,50.64
2019-02-25T00:36:41.066Z,50.80
2019-02-25T00:39:29.752Z,50.77
2019-02-25T00:42:18.507Z,50.83
2019-02-25T00:45:07.283Z,51.18
2019-02-25T00:47:55.851Z,51.20
2019-02-25T00:50:44.925Z,51.31
2019-02-25T00:53:33.818Z,51.19
2019-02-25T00:56:22.315Z,51.28
2019-02-25T00:59:10.498Z,51.25
2019-02-25T01:01:59.045Z,51.42
2019-02-25T01:04:47.651Z,51.43
2019-02-25T01:07:36.291Z,51.75
2019-02-25T01:10:24.921Z,52.04
2019-02-25T01:13:13.138Z,52.11
2019-02-25T01:16:01.960Z,52.03
2019-02-25T01:18:50.528Z,52.39
2019-02-25T01:21:39.041Z,52.93
2019-02-25T01:24:27.351Z,53.16
2019-02-25T01:27:15.639Z,53.34
2019-02-25T01:30:05.887Z,53.19
2019-02-25T01:32:55.643Z,53.25
2019-02-25T01:35:44.726Z,52.85
2019-02-25T01:38:33.259Z,52.91
2019-02-25T01:41:22.108Z,52.31
2019-02-25T01:44:10.787Z,52.47
2019-02-25T01:46:59.589Z,52.31
2019-02-25T01:49:48.217Z,52.43
2019-02-25T01:52:36.984Z,52.38
2019-02-25T01:55:25.587Z,52.38
2019-02-25T01:58:14.543Z,52.54
2019-02-25T02:01:03.598Z,52.71
2019-02-25T02:03:52.554Z,52.93
2019-02-25T02:06:40.983Z,52.46
2019-02-25T02:09:30.089Z,52.51
2019-02-25T02:12:19.099Z,52.90
2019-02-25T02:15:10.673Z,52.83
2019-02-25T02:18:00.031Z,52.73
2019-02-25T02:20:48.772Z,52.67
2019-02-25T02:23:37.582Z,52.64
2019-02-25T02:26:26.356Z,52.84
2019-02-25T02:29:15.261Z,52.79
2019-02-25T02:32:03.755Z,52.51
2019-02-25T02:34:52.826Z,52.86
2019-02-25T02:37:41.656Z,52.63
2019-02-25T02:40:30.446Z,52.59
2019-02-25T02:43:19.352Z,52.65
2019-02-25T02:46:15.705Z,52.92
2019-02-25T02:49:05.270Z,52.54
2019-02-25T02:51:53.586Z,52.36
2019-02-25T02:54:41.797Z,52.30
2019-02-25T02:57:30.457Z,52.70
2019-02-25T03:00:19.568Z,52.71
2019-02-25T03:03:08.269Z,52.63
2019-02-25T03:05:56.874Z,53.08
2019-02-25T03:08:46.644Z,52.77
2019-02-25T03:11:35.672Z,53.06
2019-02-25T03:14:24.009Z,53.03
2019-02-25T03:17:12.615Z,53.06
2019-02-25T03:20:01.390Z,53.11
2019-02-25T03:22:49.946Z,53.06
2019-02-25T03:25:38.682Z,53.29
2019-02-25T03:28:26.978Z,53.73
2019-02-25T03:31:15.489Z,53.73
2019-02-25T03:34:03.662Z,53.80
2019-02-25T03:36:52.231Z,54.00
2019-02-25T03:39:40.857Z,54.05
2019-02-25T03:42:29.541Z,54.20
2019-02-25T03:45:18.712Z,54.27
2019-02-25T03:48:07.036Z,54.50
2019-02-25T03:50:55.795Z,54.44
2019-02-25T03:53:44.083Z,54.66
2019-02-25T03:56:32.571Z,54.79
2019-02-25T03:59:21.628Z,54.95
2019-02-25T04:02:10.135Z,54.68
2019-02-25T04:04:59.008Z,54.82
2019-02-25T04:07:47.660Z,54.91
2019-02-25T04:10:36.375Z,54.49
2019-02-25T04:13:25.279Z,54.81
2019-02-25T04:16:13.386Z,55.03
2019-02-25T04:19:02.351Z,55.01
2019-02-25T04:21:50.468Z,55.17
2019-02-25T04:24:38.902Z,55.31
2019-02-25T04:27:27.500Z,55.33
2019-02-25T04:30:16.384Z,55.07
2019-02-25T04:33:04.799Z,55.14
2019-02-25T04:35:52.844Z,54.93
2019-02-25T04:38:41.310Z,55.13
2019-02-25T04:41:29.878Z,55.24
2019-02-25T04:44:18.492Z,55.22
2019-02-25T04:47:07.376Z,55.18
2019-02-25T04:49:55.816Z,55.34
2019-02-25T04:52:44.032Z,55.28
2019-02-25T04:55:33.166Z,55.62
2019-02-25T04:58:22.062Z,55.52
2019-02-25T05:01:10.710Z,55.80
2019-02-25T05:03:59.256Z,55.71
2019-02-25T05:06:48.082Z,55.65
2019-02-25T05:09:36.202Z,55.65
2019-02-25T05:12:24.626Z,55.81
2019-02-25T05:15:15.377Z,55.84
2019-02-25T05:18:04.338Z,55.84
2019-02-25T05:20:53.148Z,56.00
2019-02-25T05:23:41.976Z,56.27
2019-02-25T05:26:30.408Z,56.24
2019-02-25T05:29:18.857Z,56.20
2019-02-25T05:32:07.182Z,55.89
2019-02-25T05:34:55.830Z,56.03
2019-02-25T05:37:44.552Z,55.97
2019-02-25T05:40:33.393Z,55.84
2019-02-25T05:43:21.722Z,55.65
2019-02-25T05:46:10.445Z,55.59
2019-02-25T05:48:59.058Z,55.57
2019-02-25T05:51:47.976Z,55.56
2019-02-25T05:54:36.415Z,55.63
2019-02-25T05:57:24.544Z,55.85
2019-02-25T06:00:17.816Z,55.68
2019-02-25T06:03:06.849Z,55.73
2019-02-25T06:05:55.892Z,55.79
2019-02-25T06:08:44.714Z,55.78
2019-02-25T06:11:33.801Z,55.85
2019-02-25T06:14:22.142Z,55.68
2019-02-25T06:17:10.133Z,55.49
2019-02-25T06:19:58.832Z,56.12
2019-02-25T06:22:47.558Z,56.05
2019-02-25T06:25:38.983Z,56.19
2019-02-25T06:28:28.092Z,56.16
2019-02-25T06:31:16.679Z,56.22
2019-02-25T06:34:05.529Z,56.01
2019-02-25T06:36:54.320Z,56.24
2019-02-25T06:39:43.135Z,56.12
2019-02-25T06:42:31.930Z,56.33
2019-02-25T06:45:20.644Z,56.33
2019-02-25T06:48:09.528Z,56.48
2019-02-25T06:50:58.613Z,56.42
2019-02-25T06:53:47.570Z,56.61
2019-02-25T06:56:36.494Z,56.76
2019-02-25T06:59:25.520Z,56.68
2019-02-25T07:02:13.664Z,57.00
2019-02-25T07:05:12.355Z,56.68
2019-02-25T07:08:06.599Z,56.74
2019-02-25T07:11:13.855Z,56.89
2019-02-25T07:14:07.955Z,56.92
2019-02-25T07:17:33.705Z,57.02
2019-02-25T07:20:42.708Z,56.97
2019-02-25T07:23:56.867Z,57.16
2019-02-25T07:26:55.156Z,56.97
2019-02-25T07:30:08.604Z,56.87
2019-02-25T07:33:15.849Z,56.68
2019-02-25T07:36:21.746Z,56.47
2019-02-25T07:39:25.173Z,56.70
2019-02-25T07:42:33.329Z,56.37
2019-02-25T07:45:56.344Z,56.10
2019-02-25T07:49:02.866Z,56.40
2019-02-25T07:52:28.785Z,56.34
2019-02-25T07:55:32.715Z,56.11
2019-02-25T07:58:26.452Z,55.77
2019-02-25T08:01:25.475Z,55.86
2019-02-25T08:04:35.512Z,55.76
2019-02-25T08:07:42.485Z,55.46
2019-02-25T08:10:37.499Z,55.73
2019-02-25T08:13:48.432Z,55.46
2019-02-25T08:17:01.424Z,55.13
2019-02-25T08:20:14.850Z,54.83
2019-02-25T08:23:22.766Z,54.54
2019-02-25T08:26:29.729Z,54.31
2019-02-25T08:29:40.589Z,53.89
2019-02-25T08:32:43.820Z,53.65
2019-02-25T08:36:37.015Z,53.79
2019-02-25T08:39:33.504Z,52.67
2019-02-25T08:42:45.315Z,52.54
2019-02-25T08:45:45.295Z,52.22
2019-02-25T08:48:37.664Z,51.57
2019-02-25T08:51:26.301Z,50.94
2019-02-25T08:54:14.360Z,51.04
2019-02-25T08:57:03.458Z,50.99
2019-02-25T08:59:52.221Z,51.00
2019-02-25T09:02:41.194Z,50.80
2019-02-25T09:05:29.429Z,50.21
2019-02-25T09:08:17.537Z,50.10
2019-02-25T09:11:13.904Z,50.03
2019-02-25T09:13:56.097Z,48.74
2019-02-25T09:16:44.754Z,49.07
2019-02-25T09:19:33.247Z,48.71
2019-02-25T09:22:21.914Z,48.08
2019-02-25T09:25:10.510Z,48.49
2019-02-25T09:27:58.586Z,48.53
2019-02-25T09:30:47.336Z,47.51
2019-02-25T09:33:36.513Z,48.04
2019-02-25T09:36:25.728Z,48.35
2019-02-25T09:39:16.677Z,47.88
2019-02-25T09:42:04.767Z,47.92
2019-02-25T09:44:53.347Z,47.34
2019-02-25T09:47:41.959Z,47.27
2019-02-25T09:50:31.618Z,46.75
2019-02-25T09:53:19.731Z,46.28
2019-02-25T09:56:08.960Z,46.71
2019-02-25T09:58:57.631Z,45.37
2019-02-25T10:01:46.823Z,46.83
2019-02-25T10:04:36.132Z,45.24
2019-02-25T10:07:24.417Z,45.62
2019-02-25T10:10:13.857Z,45.72
2019-02-25T10:13:02.631Z,45.39
2019-02-25T10:15:50.861Z,45.31
2019-02-25T10:18:39.796Z,44.44
2019-02-25T10:21:28.176Z,44.70
2019-02-25T10:24:16.778Z,44.79
2019-02-25T10:27:05.034Z,44.48
2019-02-25T10:29:53.656Z,44.32
2019-02-25T10:32:42.567Z,43.74
2019-02-25T10:35:31.418Z,43.22
2019-02-25T10:38:21.617Z,42.75
2019-02-25T10:41:09.836Z,43.13
2019-02-25T10:44:00.251Z,43.25
2019-02-25T10:46:49.627Z,43.24
2019-02-25T10:49:38.492Z,42.32
2019-02-25T10:52:27.107Z,42.02
2019-02-25T10:55:23.136Z,42.42
2019-02-25T10:58:11.393Z,41.45
2019-02-25T11:01:00.228Z,41.68
2019-02-25T11:03:49.971Z,41.59
2019-02-25T11:06:38.909Z,41.38
2019-02-25T11:09:50.377Z,41.81
2019-02-25T11:12:40.492Z,40.80
2019-02-25T11:15:31.531Z,40.79
2019-02-25T11:18:22.455Z,40.62
2019-02-25T11:21:10.771Z,39.40
2019-02-25T11:24:00.085Z,39.41
2019-02-25T11:26:48.988Z,39.95
2019-02-25T11:29:39.845Z,39.81
2019-02-25T11:32:28.156Z,39.92
2019-02-25T11:35:17.404Z,39.63
2019-02-25T11:38:05.788Z,38.79
2019-02-25T11:40:54.559Z,40.18
2019-02-25T11:43:45.363Z,38.33
2019-02-25T11:46:33.138Z,38.52
2019-02-25T11:49:21.808Z,38.73
2019-02-25T11:52:11.042Z,37.49
2019-02-25T11:54:59.829Z,38.69
2019-02-25T11:57:48.854Z,38.55
2019-02-25T12:00:37.406Z,38.33
2019-02-25T12:03:26.160Z,38.24
2019-02-25T12:06:14.382Z,37.60
2019-02-25T12:09:02.392Z,38.20
2019-02-25T12:11:50.536Z,38.15
2019-02-25T12:14:39.798Z,37.98
2019-02-25T12:17:28.229Z,36.86
2019-02-25T12:20:17.261Z,37.49
2019-02-25T12:23:06.096Z,36.97
2019-02-25T12:25:54.793Z,35.76
2019-02-25T12:28:43.913Z,36.07
2019-02-25T12:31:32.136Z,36.46
2019-02-25T12:34:20.769Z,35.60
2019-02-25T12:37:09.075Z,36.50
2019-02-25T12:39:57.403Z,36.12
2019-02-25T12:42:46.508Z,36.69
2019-02-25T12:45:35.263Z,36.40
2019-02-25T12:48:24.428Z,36.47
2019-02-25T12:51:13.345Z,36.47
2019-02-25T12:54:01.448Z,35.82
2019-02-25T12:56:49.890Z,35.98
2019-02-25T12:59:38.335Z,35.26
2019-02-25T13:02:27.196Z,35.50
2019-02-25T13:05:18.016Z,35.46
2019-02-25T13:08:07.130Z,34.90
2019-02-25T13:10:55.852Z,34.90
2019-02-25T13:13:44.787Z,35.02
2019-02-25T13:16:33.499Z,34.42
2019-02-25T13:19:22.343Z,33.56
2019-02-25T13:22:10.600Z,33.36
2019-02-25T13:25:00.714Z,33.28
2019-02-25T13:27:51.824Z,33.07
2019-02-25T13:30:39.841Z,33.30
2019-02-25T13:33:28.906Z,33.08
2019-02-25T13:36:17.985Z,32.16
2019-02-25T13:39:08.307Z,32.64
2019-02-25T13:41:56.723Z,32.34
2019-02-25T13:44:45.256Z,32.29
2019-02-25T13:47:34.089Z,31.56
2019-02-25T13:50:23.157Z,32.13
2019-02-25T13:53:11.652Z,31.87
2019-02-25T13:56:01.149Z,31.64
2019-02-25T13:58:49.879Z,31.72
2019-02-25T14:01:38.567Z,31.25
2019-02-25T14:04:27.782Z,30.78
2019-02-25T14:07:16.333Z,31.24
2019-02-25T14:10:07.838Z,31.22
2019-02-25T14:12:56.199Z,31.37
2019-02-25T14:15:44.951Z,31.92
2019-02-25T14:18:33.948Z,32.78
2019-02-25T14:21:22.522Z,33.47
2019-02-25T14:24:11.585Z,33.83
2019-02-25T14:26:59.707Z,34.37
2019-02-25T14:29:48.821Z,35.45
2019-02-25T14:32:37.701Z,35.38
2019-02-25T14:35:28.525Z,35.68
2019-02-25T14:38:18.386Z,36.74
2019-02-25T14:41:07.231Z,36.80
2019-02-25T14:43:58.752Z,37.45
2019-02-25T14:46:47.219Z,37.55
2019-02-25T14:49:37.742Z,37.55
2019-02-25T14:52:26.844Z,38.10
2019-02-25T14:55:16.445Z,38.01
2019-02-25T14:58:07.533Z,37.76
2019-02-25T15:00:56.268Z,38.46
2019-02-25T15:03:44.701Z,39.04
2019-02-25T15:06:34.755Z,38.85
2019-02-25T15:09:23.222Z,38.76
2019-02-25T15:12:12.353Z,39.72
2019-02-25T15:15:02.691Z,39.19
2019-02-25T15:17:52.762Z,39.57
2019-02-25T15:20:41.631Z,39.63
2019-02-25T15:23:30.040Z,39.41
2019-02-25T15:26:19.871Z,39.33
2019-02-25T15:29:09.338Z,39.46
2019-02-25T15:31:59.316Z,39.62
2019-02-25T15:34:50.756Z,39.95
2019-02-25T15:37:40.628Z,39.26
2019-02-25T15:40:29.537Z,40.19
2019-02-25T15:43:20.345Z,39.44
2019-02-25T15:46:08.147Z,38.72
2019-02-25T15:48:56.529Z,38.67
2019-02-25T15:51:51.369Z,39.60
2019-02-25T15:54:41.406Z,39.32
2019-02-25T15:57:30.763Z,39.31
2019-02-25T16:00:21.264Z,39.50
2019-02-25T16:03:11.675Z,39.92
2019-02-25T16:06:03.944Z,40.61
2019-02-25T16:08:52.139Z,41.27
2019-02-25T16:11:43.997Z,41.40
2019-02-25T16:14:32.453Z,42.06
2019-02-25T16:17:22.332Z,41.25
2019-02-25T16:20:11.603Z,42.38
2019-02-25T16:23:00.478Z,42.71
2019-02-25T16:25:52.636Z,42.74
2019-02-25T16:28:41.567Z,43.30
2019-02-25T16:31:32.690Z,43.69
2019-02-25T16:34:20.904Z,43.99
2019-02-25T16:37:12.039Z,44.04
2019-02-25T16:40:03.075Z,44.20
2019-02-25T16:42:50.962Z,44.93
2019-02-25T16:45:41.872Z,44.71
2019-02-25T16:48:32.065Z,44.98
2019-02-25T16:51:20.214Z,44.90
2019-02-25T16:54:11.001Z,45.65
2019-02-25T16:56:59.249Z,45.73
2019-02-25T16:59:48.481Z,46.82
2019-02-25T17:02:38.467Z,46.69
2019-02-25T17:05:27.219Z,47.45
2019-02-25T17:08:19.090Z,47.54
2019-02-25T17:11:08.175Z,48.07
2019-02-25T17:13:57.736Z,47.94
2019-02-25T17:16:46.838Z,48.38
2019-02-25T17:19:35.791Z,49.02
2019-02-25T17:22:25.263Z,48.93
2019-02-25T17:25:13.829Z,49.22
2019-02-25T17:28:02.851Z,49.56
2019-02-25T17:30:52.731Z,50.22
2019-02-25T17:33:41.666Z,50.07
2019-02-25T17:36:30.018Z,50.50
2019-02-25T17:39:18.811Z,50.65
2019-02-25T17:42:09.258Z,51.52
2019-02-25T17:44:59.881Z,50.90
2019-02-25T17:47:48.631Z,51.39
2019-02-25T17:50:37.578Z,51.93
2019-02-25T17:53:28.381Z,52.17
2019-02-25T17:56:18.632Z,52.28
2019-02-25T17:59:09.646Z,52.66
2019-02-25T18:01:58.404Z,52.34
2019-02-25T18:04:47.471Z,52.45
2019-02-25T18:07:37.740Z,52.57
2019-02-25T18:10:28.972Z,53.06
2019-02-25T18:13:17.479Z,53.10
2019-02-25T18:16:07.988Z,53.14
2019-02-25T18:18:56.875Z,53.74
2019-02-25T18:21:46.309Z,54.19
2019-02-25T18:24:35.544Z,53.68
2019-02-25T18:27:24.313Z,53.75
2019-02-25T18:30:13.965Z,54.00
2019-02-25T18:33:04.638Z,54.11
2019-02-25T18:35:52.237Z,54.39
2019-02-25T18:38:40.968Z,54.41
2019-02-25T18:41:33.614Z,54.99
2019-02-25T18:44:19.863Z,54.90
2019-02-25T18:47:08.591Z,54.84
2019-02-25T18:49:58.800Z,55.06
2019-02-25T18:52:48.146Z,54.94
2019-02-25T18:55:37.641Z,54.99
2019-02-25T18:58:26.476Z,55.28
2019-02-25T19:01:17.560Z,55.21
2019-02-25T19:04:08.054Z,55.42
2019-02-25T19:06:59.788Z,55.75
2019-02-25T19:09:49.344Z,55.43
2019-02-25T19:12:38.772Z,55.56
2019-02-25T19:15:27.216Z,55.70
2019-02-25T19:18:17.734Z,55.76
2019-02-25T19:21:08.705Z,56.09
2019-02-25T19:23:57.540Z,55.81
2019-02-25T19:26:47.407Z,56.35
2019-02-25T19:29:37.241Z,56.29
2019-02-25T19:32:25.803Z,56.57
2019-02-25T19:35:15.326Z,56.69
2019-02-25T19:38:05.814Z,56.88
2019-02-25T19:40:55.941Z,57.16
2019-02-25T19:43:45.256Z,57.44
2019-02-25T19:46:34.364Z,56.99
2019-02-25T19:49:23.418Z,57.09
2019-02-25T19:52:12.495Z,57.23
2019-02-25T19:55:05.626Z,57.52
2019-02-25T19:57:52.553Z,57.51
2019-02-25T20:00:41.544Z,57.66
2019-02-25T20:03:32.884Z,57.91
2019-02-25T20:06:21.565Z,57.99
2019-02-25T20:09:12.914Z,58.11
2019-02-25T20:12:02.551Z,58.20
2019-02-25T20:14:51.400Z,58.50
2019-02-25T20:17:39.608Z,58.33
2019-02-25T20:20:36.281Z,58.44
2019-02-25T20:23:26.570Z,58.64
2019-02-25T20:26:15.525Z,58.40
2019-02-25T20:29:06.354Z,58.66
2019-02-25T20:31:56.182Z,58.54
2019-02-25T20:34:46.334Z,58.90
2019-02-25T20:37:35.966Z,58.82
2019-02-25T20:40:28.232Z,58.32
2019-02-25T20:43:19.345Z,58.42
2019-02-25T20:46:08.627Z,58.55
2019-02-25T20:48:57.778Z,58.82
2019-02-25T20:51:48.370Z,58.93
2019-02-25T20:54:40.707Z,58.90
2019-02-25T20:57:29.538Z,59.16
2019-02-25T21:00:20.297Z,59.15
2019-02-25T21:03:12.094Z,59.14
2019-02-25T21:05:59.800Z,59.33
2019-02-25T21:08:48.755Z,59.65
2019-02-25T21:11:37.898Z,59.79
2019-02-25T21:14:29.513Z,59.69
2019-02-25T21:17:17.051Z,59.68
2019-02-25T21:20:08.353Z,60.00
2019-02-25T21:23:02.140Z,59.71
2019-02-25T21:25:47.883Z,60.23
2019-02-25T21:28:38.053Z,60.22
2019-02-25T21:31:26.620Z,59.77
2019-02-25T21:34:17.761Z,60.00
2019-02-25T21:37:05.258Z,60.06
2019-02-25T21:39:53.980Z,60.03
2019-02-25T21:42:44.353Z,60.05
2019-02-25T21:45:32.826Z,60.05
2019-02-25T21:48:25.055Z,59.98
2019-02-25T21:51:12.355Z,59.79
2019-02-25T21:54:04.438Z,59.85
2019-02-25T21:56:52.378Z,60.17
2019-02-25T21:59:41.476Z,60.54
2019-02-25T22:02:30.780Z,60.71
2019-02-25T22:05:21.358Z,60.91
2019-02-25T22:08:09.613Z,60.85
2019-02-25T22:11:11.742Z,60.91
2019-02-25T22:13:49.000Z,60.95
2019-02-25T22:16:44.119Z,60.88
2019-02-25T22:19:28.122Z,61.11
2019-02-25T22:22:16.820Z,61.34
2019-02-25T22:25:06.629Z,61.57
2019-02-25T22:27:56.206Z,61.59
2019-02-25T22:30:47.385Z,61.59
2019-02-25T22:33:35.702Z,61.37
2019-02-25T22:36:24.510Z,61.32
2019-02-25T22:39:13.199Z,61.35
2019-02-25T22:42:03.568Z,61.33
2019-02-25T22:44:54.030Z,61.90
2019-02-25T22:47:42.160Z,61.78
2019-02-25T22:50:31.216Z,61.71
2019-02-25T22:53:21.178Z,61.58
2019-02-25T22:56:13.408Z,61.76
2019-02-25T22:59:02.694Z,61.68
2019-02-25T23:01:52.617Z,61.46
2019-02-25T23:04:40.984Z,61.35
2019-02-25T23:07:30.879Z,61.36
2019-02-25T23:10:21.839Z,61.40
2019-02-25T23:13:10.211Z,61.35
2019-02-25T23:15:59.036Z,61.49
2019-02-25T23:18:48.038Z,61.46
2019-02-25T23:21:38.339Z,61.47
2019-02-25T23:24:30.021Z,61.41
2019-02-25T23:27:17.792Z,61.46
2019-02-25T23:30:08.626Z,61.57
2019-02-25T23:32:56.864Z,61.65
2019-02-25T23:35:46.963Z,61.31
2019-02-25T23:38:36.601Z,61.29
2019-02-25T23:41:25.367Z,61.50
2019-02-25T23:44:15.143Z,61.63
2019-02-25T23:47:04.859Z,61.68
2019-02-25T23:49:53.693Z,61.82
2019-02-25T23:52:42.197Z,61.74
2019-02-25T23:55:30.908Z,61.73
2019-02-25T23:58:20.154Z,61.58
